Time;durP1;ratioP1;P1;durP2;ratioP2;P2;SDS_P1;SDS_P2;PMS_P1;PMS_P2;Temp;Humidity;BMP_temperature;BMP_pressure;BME280_temperature;BME280_humidity;BME280_pressure;Samples;Min_cycle;Max_cycle;Signal;HPM_P1;HPM_P2
2024/04/23 00:02:03;;;;;;;2.60;2.40;;;11.20;86.70;;;;;;5457220;26;20522;-47
2024/04/23 00:04:30;;;;;;;2.60;2.40;;;11.20;86.70;;;;;;5471614;26;20594;-48
2024/04/23 00:07:02;;;;;;;2.10;1.90;;;11.20;86.70;;;;;;5458977;26;20458;-46
2024/04/23 00:09:29;;;;;;;2.60;2.40;;;11.20;86.70;;;;;;5462403;26;20629;-47
2024/04/23 00:12:02;;;;;;;2.60;2.40;;;11.20;86.70;;;;;;5459239;26;20461;-49
2024/04/23 00:14:32;;;;;;;2.70;2.50;;;11.20;86.60;;;;;;5467226;26;20469;-48
2024/04/23 00:17:03;;;;;;;2.40;2.20;;;11.20;86.50;;;;;;5452530;26;20461;-48
2024/04/23 00:19:31;;;;;;;2.40;2.20;;;11.20;86.50;;;;;;5463839;26;20460;-48
2024/04/23 00:22:01;;;;;;;2.63;2.20;;;11.20;86.60;;;;;;5465077;26;20499;-49
2024/04/23 00:24:28;;;;;;;2.40;2.20;;;11.20;86.60;;;;;;5470537;26;20453;-47
2024/04/23 00:27:02;;;;;;;3.13;2.40;;;11.20;86.70;;;;;;5469112;26;21009;-48
2024/04/23 00:29:32;;;;;;;2.30;2.03;;;11.20;86.70;;;;;;5467278;26;20807;-47
2024/04/23 00:32:02;;;;;;;2.77;2.57;;;11.20;86.60;;;;;;5461545;26;20574;-47
2024/04/23 00:34:30;;;;;;;2.60;2.40;;;11.20;86.60;;;;;;5466710;26;20482;-48
2024/04/23 00:37:01;;;;;;;2.07;1.87;;;11.20;86.70;;;;;;5444006;26;20453;-47
2024/04/23 00:39:28;;;;;;;2.50;2.30;;;11.20;86.60;;;;;;5462271;26;21180;-48
2024/04/23 00:42:01;;;;;;;2.67;2.37;;;11.20;86.60;;;;;;5455714;26;20816;-47
2024/04/23 00:44:28;;;;;;;2.37;2.17;;;11.20;86.70;;;;;;5459679;26;20461;-47
2024/04/23 00:47:04;;;;;;;2.63;2.33;;;11.20;86.70;;;;;;5472917;26;20573;-49
2024/04/23 00:49:33;;;;;;;2.50;2.30;;;11.20;86.70;;;;;;5463599;26;20571;-48
2024/04/23 00:52:03;;;;;;;3.07;2.77;;;11.20;86.70;;;;;;5441482;26;20501;-48
2024/04/23 00:54:31;;;;;;;2.53;2.33;;;11.20;86.70;;;;;;5471951;26;20466;-47
2024/04/23 00:57:02;;;;;;;2.40;2.20;;;11.10;86.60;;;;;;5448928;26;20452;-47
2024/04/23 00:59:30;;;;;;;2.33;2.13;;;11.20;86.60;;;;;;5466541;26;20597;-49
2024/04/23 01:02:00;;;;;;;2.33;2.13;;;11.10;87.80;;;;;;5455694;26;20466;-46
2024/04/23 01:04:30;;;;;;;2.37;2.17;;;11.10;86.70;;;;;;5444731;26;20534;-49
2024/04/23 01:07:01;;;;;;;2.50;2.30;;;11.10;86.70;;;;;;5442909;26;20468;-47
2024/04/23 01:09:29;;;;;;;2.70;2.50;;;11.10;86.60;;;;;;5457654;26;21029;-48
2024/04/23 01:12:08;;;;;;;3.53;2.80;;;11.10;86.50;;;;;;5457057;26;20581;-51
2024/04/23 01:14:39;;;;;;;2.50;2.30;;;11.10;87.80;;;;;;5459131;26;20460;-48
2024/04/23 01:17:10;;;;;;;2.83;2.53;;;11.10;86.50;;;;;;5465913;26;20523;-49
2024/04/23 01:19:44;;;;;;;2.90;2.37;;;11.10;86.50;;;;;;5456392;26;20461;-48
2024/04/23 01:22:21;;;;;;;2.70;2.43;;;11.10;86.60;;;;;;5450598;26;20461;-49
2024/04/23 01:24:58;;;;;;;2.40;2.20;;;11.10;86.60;;;;;;5458705;26;21007;-48
2024/04/23 01:27:33;;;;;;;3.03;2.40;;;11.10;86.60;;;;;;5472144;26;20451;-46
2024/04/23 01:30:02;;;;;;;2.97;2.73;;;11.10;86.50;;;;;;5460540;26;20851;-47
2024/04/23 01:32:34;;;;;;;2.30;2.10;;;11.10;86.60;;;;;;5447871;26;20536;-48
2024/04/23 01:35:02;;;;;;;2.70;2.40;;;11.10;86.60;;;;;;5457523;26;20916;-49
2024/04/23 01:37:35;;;;;;;3.00;2.77;;;11.10;86.70;;;;;;5462653;26;20461;-47
2024/04/23 01:40:07;;;;;;;2.10;1.90;;;11.10;86.70;;;;;;5476856;26;20461;-47
2024/04/23 01:42:41;;;;;;;2.27;2.07;;;11.10;86.70;;;;;;5469830;26;20778;-50
2024/04/23 01:45:11;;;;;;;2.60;2.40;;;11.00;86.70;;;;;;5461537;26;20870;-48
2024/04/23 01:47:53;;;;;;;2.80;2.60;;;11.00;86.50;;;;;;5450001;26;20458;-47
2024/04/23 01:50:22;;;;;;;2.70;2.50;;;11.00;86.70;;;;;;5456881;26;20464;-47
2024/04/23 01:52:53;;;;;;;2.87;2.53;;;11.00;86.70;;;;;;5455282;26;21136;-47
2024/04/23 01:55:20;;;;;;;2.90;2.43;;;11.00;86.60;;;;;;5474683;26;20517;-47
2024/04/23 01:57:52;;;;;;;2.70;2.20;;;11.00;86.60;;;;;;5462577;26;21077;-47
2024/04/23 02:00:23;;;;;;;2.43;2.23;;;11.00;86.70;;;;;;5454080;26;20461;-47
2024/04/23 02:02:56;;;;;;;3.17;2.70;;;11.00;86.50;;;;;;5475862;26;20808;-46
2024/04/23 02:05:25;;;;;;;3.30;3.00;;;11.00;86.60;;;;;;5447887;26;20538;-46
2024/04/23 02:07:56;;;;;;;2.77;2.57;;;11.00;86.50;;;;;;5462764;26;20462;-47
2024/04/23 02:10:26;;;;;;;2.93;2.70;;;11.00;86.50;;;;;;5459698;26;20532;-47
2024/04/23 02:13:01;;;;;;;2.47;2.27;;;11.00;86.40;;;;;;5466655;26;20580;-47
2024/04/23 02:15:28;;;;;;;3.00;2.60;;;11.00;86.30;;;;;;5459268;26;20601;-47
2024/04/23 02:18:02;;;;;;;3.03;2.83;;;11.00;86.40;;;;;;5473951;26;20866;-47
2024/04/23 02:20:29;;;;;;;2.77;2.47;;;11.00;86.50;;;;;;5447383;26;20473;-47
2024/04/23 02:23:00;;;;;;;2.87;2.60;;;11.00;86.30;;;;;;5463624;26;20523;-46
2024/04/23 02:25:28;;;;;;;2.53;2.33;;;11.00;86.50;;;;;;5463936;26;21027;-47
2024/04/23 02:28:03;;;;;;;4.40;3.00;;;11.00;86.40;;;;;;5466398;26;20459;-47
2024/04/23 02:30:33;;;;;;;3.20;2.87;;;11.00;86.60;;;;;;5451787;26;20473;-47
2024/04/23 02:33:11;;;;;;;2.93;2.73;;;11.00;87.80;;;;;;5460931;26;21004;-47
2024/04/23 02:35:40;;;;;;;3.30;2.40;;;11.00;86.50;;;;;;5462500;26;20841;-47
2024/04/23 02:38:09;;;;;;;2.80;2.57;;;11.00;86.50;;;;;;5472251;26;20463;-47
2024/04/23 02:40:36;;;;;;;2.90;2.60;;;10.90;86.40;;;;;;5469951;26;20834;-47
2024/04/23 02:43:12;;;;;;;3.07;2.40;;;10.90;86.30;;;;;;5475169;26;20507;-47
2024/04/23 02:45:39;;;;;;;3.17;2.70;;;10.90;86.40;;;;;;5467762;26;20563;-47
2024/04/23 02:48:09;;;;;;;2.30;2.10;;;10.90;86.30;;;;;;5476389;26;20458;-47
2024/04/23 02:50:37;;;;;;;2.77;2.50;;;10.90;86.40;;;;;;5461724;26;20456;-47
2024/04/23 02:53:07;;;;;;;2.90;2.60;;;10.90;86.30;;;;;;5463436;26;21132;-46
2024/04/23 02:55:34;;;;;;;2.87;2.60;;;10.90;86.40;;;;;;5472227;26;20508;-47
2024/04/23 02:58:06;;;;;;;2.60;2.40;;;10.90;86.30;;;;;;5440865;26;20496;-47
2024/04/23 03:00:36;;;;;;;3.10;2.80;;;10.90;86.10;;;;;;5463094;26;21043;-47
2024/04/23 03:03:09;;;;;;;3.20;2.67;;;10.90;86.30;;;;;;5448705;26;20522;-47
2024/04/23 03:05:36;;;;;;;4.50;2.67;;;10.90;86.30;;;;;;5461734;26;20566;-47
2024/04/23 03:08:12;;;;;;;3.10;2.70;;;10.90;86.20;;;;;;5461648;26;20487;-46
2024/04/23 03:10:39;;;;;;;2.80;2.40;;;10.90;86.30;;;;;;5461136;26;20501;-47
2024/04/23 03:13:12;;;;;;;2.63;2.43;;;10.90;86.30;;;;;;5474236;26;20819;-47
2024/04/23 03:15:42;;;;;;;2.60;2.40;;;10.90;86.20;;;;;;5465951;26;20854;-47
2024/04/23 03:18:11;;;;;;;2.70;2.43;;;10.90;86.30;;;;;;5454131;26;20453;-47
2024/04/23 03:20:39;;;;;;;2.70;2.50;;;10.80;86.00;;;;;;5454626;26;20535;-47
2024/04/23 03:23:09;;;;;;;2.57;2.37;;;10.90;86.20;;;;;;5461114;26;20509;-46
2024/04/23 03:25:36;;;;;;;2.50;2.30;;;10.80;86.20;;;;;;5454435;26;20471;-47
2024/04/23 03:28:10;;;;;;;2.70;2.40;;;10.80;86.00;;;;;;5473217;26;20910;-47
2024/04/23 03:30:38;;;;;;;3.27;2.97;;;10.80;86.00;;;;;;5431808;26;20535;-47
2024/04/23 03:33:13;;;;;;;2.90;2.37;;;10.80;86.10;;;;;;5464320;26;20462;-46
2024/04/23 03:35:40;;;;;;;2.50;2.30;;;10.80;86.10;;;;;;5458121;26;20518;-47
2024/04/23 03:38:11;;;;;;;2.87;2.30;;;10.80;86.20;;;;;;5469269;26;20458;-46
2024/04/23 03:40:41;;;;;;;3.30;3.00;;;10.80;86.30;;;;;;5461334;26;20580;-47
2024/04/23 03:43:11;;;;;;;2.80;2.50;;;10.80;86.30;;;;;;5474946;26;20452;-46
2024/04/23 03:45:41;;;;;;;3.50;2.80;;;10.80;86.30;;;;;;5462160;26;20525;-47
2024/04/23 03:48:14;;;;;;;2.80;2.60;;;10.80;86.30;;;;;;5478097;26;20570;-46
2024/04/23 03:50:42;;;;;;;2.73;2.50;;;10.80;86.30;;;;;;5457222;26;20547;-47
2024/04/23 03:53:14;;;;;;;2.57;2.37;;;10.80;86.00;;;;;;5471984;26;20456;-47
2024/04/23 03:55:44;;;;;;;3.80;3.00;;;10.80;86.20;;;;;;5443555;26;21037;-47
2024/04/23 03:58:37;;;;;;;2.50;2.30;;;10.70;86.10;;;;;;5462184;26;21043;-47
2024/04/23 04:01:05;;;;;;;2.80;2.60;;;10.70;86.10;;;;;;5443522;26;20456;-47
2024/04/23 04:06:23;;;;;;;3.10;2.07;;;10.70;86.10;;;;;;5475023;26;20455;-47
2024/04/23 04:08:53;;;;;;;2.90;2.60;;;10.70;85.90;;;;;;5464060;26;20557;-47
2024/04/23 04:11:31;;;;;;;2.90;2.60;;;10.70;86.10;;;;;;5476840;26;20463;-47
2024/04/23 04:14:01;;;;;;;2.80;2.50;;;10.70;86.10;;;;;;5461561;26;20603;-47
2024/04/23 04:16:32;;;;;;;2.63;2.43;;;10.70;86.30;;;;;;5459478;26;20507;-47
2024/04/23 04:19:04;;;;;;;3.03;2.63;;;10.70;86.20;;;;;;5476908;26;20532;-47
2024/04/23 04:21:35;;;;;;;3.00;2.63;;;10.70;86.10;;;;;;5461960;26;20460;-47
2024/04/23 04:24:06;;;;;;;2.60;2.40;;;10.70;86.20;;;;;;5443389;26;20903;-47
2024/04/23 04:26:35;;;;;;;2.53;2.33;;;10.70;86.20;;;;;;5455964;26;20518;-47
2024/04/23 04:29:03;;;;;;;2.80;2.37;;;10.70;86.30;;;;;;5456028;26;20514;-47
2024/04/23 04:31:32;;;;;;;3.20;2.80;;;10.70;86.20;;;;;;5419646;26;20475;-47
2024/04/23 04:34:05;;;;;;;3.43;2.80;;;10.70;86.20;;;;;;5450273;26;20516;-47
2024/04/23 04:36:35;;;;;;;3.50;3.20;;;10.70;86.20;;;;;;5458790;26;20450;-47
2024/04/23 04:39:03;;;;;;;2.63;2.43;;;10.70;86.10;;;;;;5463491;26;20469;-47
2024/04/23 04:41:35;;;;;;;3.60;2.70;;;10.60;86.00;;;;;;5458620;26;20468;-46
2024/04/23 04:44:04;;;;;;;3.13;2.80;;;10.60;86.00;;;;;;5475611;26;21078;-47
2024/04/23 04:46:34;;;;;;;3.63;2.40;;;10.60;86.00;;;;;;5463906;26;21062;-48
2024/04/23 04:49:06;;;;;;;3.17;2.93;;;10.60;86.00;;;;;;5477356;26;20530;-47
2024/04/23 04:51:36;;;;;;;3.17;2.87;;;10.60;86.00;;;;;;5464543;26;20479;-47
2024/04/23 04:54:03;;;;;;;2.90;2.57;;;10.60;86.00;;;;;;5418629;26;20476;-47
2024/04/23 04:56:33;;;;;;;2.87;2.37;;;10.60;86.10;;;;;;5461787;26;20607;-47
2024/04/23 04:59:00;;;;;;;2.70;2.50;;;10.60;86.00;;;;;;5471928;26;20790;-47
2024/04/23 05:01:30;;;;;;;2.20;2.00;;;10.60;86.00;;;;;;5468574;26;20514;-47
2024/04/23 05:04:00;;;;;;;3.50;2.70;;;10.60;86.00;;;;;;5469035;26;21013;-47
2024/04/23 05:06:34;;;;;;;3.13;2.83;;;10.60;86.00;;;;;;5477214;26;20459;-47
2024/04/23 05:09:04;;;;;;;2.87;2.67;;;10.60;86.10;;;;;;5462798;26;20479;-48
2024/04/23 05:11:35;;;;;;;3.10;2.80;;;10.60;86.00;;;;;;5476737;26;20460;-47
2024/04/23 05:14:02;;;;;;;3.13;2.83;;;10.60;86.00;;;;;;5470233;26;20464;-47
2024/04/23 05:16:32;;;;;;;2.70;2.33;;;10.60;86.10;;;;;;5477237;26;20492;-47
2024/04/23 05:18:59;;;;;;;3.07;2.77;;;10.50;85.90;;;;;;5464420;26;20461;-47
2024/04/23 05:21:29;;;;;;;2.93;2.63;;;10.50;86.00;;;;;;5455161;26;20837;-47
2024/04/23 05:23:59;;;;;;;2.60;2.40;;;10.50;86.10;;;;;;5450873;26;20883;-46
2024/04/23 05:26:29;;;;;;;2.83;2.60;;;10.50;86.10;;;;;;5459234;26;21066;-47
2024/04/23 05:28:57;;;;;;;2.70;2.50;;;10.50;86.00;;;;;;5458893;26;20468;-47
2024/04/23 05:34:13;;;;;;;3.87;3.33;;;10.50;86.00;;;;;;5421406;26;21026;-47
2024/04/23 05:36:43;;;;;;;3.47;2.90;;;10.50;86.00;;;;;;5459010;26;20574;-47
2024/04/23 05:39:15;;;;;;;3.03;2.73;;;10.50;86.00;;;;;;5434770;26;20525;-47
2024/04/23 05:41:45;;;;;;;3.40;3.10;;;10.50;85.90;;;;;;5467435;26;20463;-47
2024/04/23 05:44:15;;;;;;;3.03;2.73;;;10.50;86.10;;;;;;5453744;26;20472;-46
2024/04/23 05:46:45;;;;;;;2.40;2.20;;;10.50;86.00;;;;;;5473492;26;20874;-47
2024/04/23 05:49:53;;;;;;;4.13;2.90;;;10.50;85.90;;;;;;5476455;26;21022;-46
2024/04/23 05:53:19;;;;;;;2.80;2.60;;;10.50;85.80;;;;;;5461468;26;20820;-47
2024/04/23 05:56:08;;;;;;;2.80;2.60;;;10.50;85.90;;;;;;5468081;26;21035;-47
2024/04/23 05:58:38;;;;;;;3.00;2.37;;;10.50;85.90;;;;;;5472356;25;20527;-47
2024/04/23 06:01:05;;;;;;;3.20;2.90;;;10.50;85.90;;;;;;5474146;26;21075;-47
2024/04/23 06:03:35;;;;;;;2.60;2.40;;;10.50;85.90;;;;;;5475942;26;21011;-47
2024/04/23 06:06:02;;;;;;;3.83;3.37;;;10.40;85.80;;;;;;5468873;26;20846;-47
2024/04/23 06:08:32;;;;;;;3.00;2.53;;;10.50;85.90;;;;;;5475188;26;20453;-47
2024/04/23 06:10:59;;;;;;;6.50;2.60;;;10.50;85.80;;;;;;5475190;26;20465;-47
2024/04/23 06:13:32;;;;;;;2.80;2.53;;;10.40;85.80;;;;;;5474624;26;20559;-47
2024/04/23 06:15:59;;;;;;;3.30;3.00;;;10.40;85.80;;;;;;5469758;26;21059;-47
2024/04/23 06:18:29;;;;;;;3.30;3.00;;;10.40;85.80;;;;;;5474836;26;20556;-46
2024/04/23 06:20:57;;;;;;;4.20;3.70;;;10.40;85.70;;;;;;5475008;26;20532;-47
2024/04/23 06:23:27;;;;;;;3.30;3.00;;;10.40;85.80;;;;;;5472736;26;20456;-47
2024/04/23 06:25:57;;;;;;;5.20;3.67;;;10.40;85.60;;;;;;5475090;26;20463;-47
2024/04/23 06:28:25;;;;;;;3.67;3.37;;;10.40;85.50;;;;;;5474615;25;21416;-47
2024/04/23 06:30:57;;;;;;;2.90;2.60;;;10.50;85.60;;;;;;5472594;26;20521;-47
2024/04/23 06:33:24;;;;;;;3.27;2.77;;;10.40;85.60;;;;;;5475566;26;20459;-47
2024/04/23 06:35:54;;;;;;;3.90;3.10;;;10.40;85.60;;;;;;5470737;26;20576;-47
2024/04/23 06:38:22;;;;;;;3.60;3.30;;;10.40;84.60;;;;;;5443108;26;21429;-47
2024/04/23 06:40:53;;;;;;;4.57;3.37;;;10.40;85.20;;;;;;5475126;26;20514;-46
2024/04/23 06:43:23;;;;;;;3.97;3.60;;;10.40;85.20;;;;;;5474073;26;20563;-47
2024/04/23 06:45:50;;;;;;;4.40;3.37;;;10.40;85.20;;;;;;5472274;26;21083;-47
2024/04/23 06:48:22;;;;;;;3.23;2.93;;;10.40;85.20;;;;;;5439932;26;20477;-47
2024/04/23 06:50:50;;;;;;;3.87;3.53;;;10.40;85.20;;;;;;5474782;26;21002;-47
2024/04/23 06:53:19;;;;;;;4.50;4.03;;;10.40;84.70;;;;;;5474633;26;20477;-47
2024/04/23 06:55:47;;;;;;;3.70;3.40;;;10.40;84.80;;;;;;5473804;26;20450;-47
2024/04/23 06:58:16;;;;;;;3.43;3.13;;;10.40;84.90;;;;;;5469599;26;20513;-47
2024/04/23 07:00:46;;;;;;;4.97;4.47;;;10.40;84.90;;;;;;5472315;26;20462;-47
2024/04/23 07:03:16;;;;;;;3.87;3.40;;;10.40;84.80;;;;;;5474242;26;20511;-47
2024/04/23 07:05:49;;;;;;;4.80;3.80;;;10.40;85.00;;;;;;5478488;26;20577;-47
2024/04/23 07:08:19;;;;;;;4.33;3.70;;;10.50;85.10;;;;;;5478797;26;20924;-47
2024/04/23 07:10:46;;;;;;;3.10;2.57;;;10.50;85.10;;;;;;5470015;26;20471;-47
2024/04/23 07:13:16;;;;;;;3.87;3.57;;;10.40;85.20;;;;;;5455116;26;20533;-47
2024/04/23 07:15:43;;;;;;;4.63;4.10;;;10.50;85.00;;;;;;5459035;26;20890;-46
2024/04/23 07:18:13;;;;;;;4.20;3.50;;;10.50;84.70;;;;;;5476144;26;20507;-47
2024/04/23 07:20:41;;;;;;;4.07;3.67;;;10.50;84.90;;;;;;5463782;26;20569;-47
2024/04/23 07:23:13;;;;;;;4.57;4.17;;;10.50;84.80;;;;;;5473964;26;20470;-47
2024/04/23 07:25:47;;;;;;;4.70;3.87;;;10.50;84.60;;;;;;5443665;26;20999;-46
2024/04/23 07:28:17;;;;;;;4.87;3.90;;;10.50;85.10;;;;;;5491667;26;20450;-47
2024/04/23 07:30:44;;;;;;;3.43;2.90;;;10.50;84.70;;;;;;5468631;26;20536;-47
2024/04/23 07:33:16;;;;;;;4.03;3.30;;;10.50;85.00;;;;;;5477767;26;20464;-46
2024/04/23 07:35:44;;;;;;;4.47;3.00;;;10.50;85.10;;;;;;5477918;26;20458;-47
2024/04/23 07:38:16;;;;;;;3.33;3.03;;;10.50;85.10;;;;;;5476718;26;20489;-47
2024/04/23 07:40:45;;;;;;;3.40;2.97;;;10.50;85.00;;;;;;5465155;26;20459;-47
2024/04/23 07:43:15;;;;;;;2.83;2.60;;;10.60;85.00;;;;;;5476876;26;20570;-47
2024/04/23 07:45:43;;;;;;;3.73;3.30;;;10.60;85.20;;;;;;5432828;26;21061;-47
2024/04/23 07:48:12;;;;;;;3.67;3.30;;;10.60;85.20;;;;;;5476996;26;21155;-47
2024/04/23 07:50:40;;;;;;;3.07;2.80;;;10.60;85.20;;;;;;5462347;26;20458;-47
2024/04/23 07:53:10;;;;;;;4.03;3.20;;;10.60;85.10;;;;;;5476860;26;20579;-47
2024/04/23 07:55:39;;;;;;;5.57;3.47;;;10.60;84.90;;;;;;5478233;26;20793;-47
2024/04/23 07:58:09;;;;;;;3.47;3.17;;;10.60;84.80;;;;;;5493576;26;21013;-47
2024/04/23 08:00:39;;;;;;;3.50;3.13;;;10.60;84.90;;;;;;5467916;26;20560;-47
2024/04/23 08:03:07;;;;;;;5.63;3.50;;;10.60;84.80;;;;;;5477782;26;20460;-47
2024/04/23 08:05:40;;;;;;;4.60;2.90;;;10.60;84.90;;;;;;5477323;26;20450;-47
2024/04/23 08:08:07;;;;;;;3.73;3.33;;;10.60;84.80;;;;;;5475473;26;20872;-47
2024/04/23 08:10:38;;;;;;;3.73;3.43;;;10.60;84.90;;;;;;5474883;26;21114;-47
2024/04/23 08:13:09;;;;;;;4.77;3.60;;;10.60;84.80;;;;;;5473926;26;20527;-47
2024/04/23 08:15:39;;;;;;;4.10;3.67;;;10.60;84.50;;;;;;5495331;26;20455;-47
2024/04/23 08:18:06;;;;;;;4.37;3.60;;;10.60;84.50;;;;;;5445177;26;21029;-46
2024/04/23 08:20:36;;;;;;;4.33;3.70;;;10.70;84.00;;;;;;5477147;26;20469;-47
2024/04/23 08:23:07;;;;;;;4.07;3.67;;;10.70;84.20;;;;;;5463419;26;21042;-47
2024/04/23 08:25:37;;;;;;;3.93;3.53;;;10.70;84.40;;;;;;5476573;26;20475;-52
2024/04/23 08:28:07;;;;;;;3.10;2.80;;;10.70;84.30;;;;;;5477779;26;20460;-47
2024/04/23 08:30:37;;;;;;;5.20;4.07;;;10.70;84.70;;;;;;5467122;26;20849;-47
2024/04/23 08:33:05;;;;;;;4.60;3.37;;;10.70;84.70;;;;;;5498802;26;20484;-47
2024/04/23 08:35:35;;;;;;;3.60;3.00;;;10.70;84.80;;;;;;5458423;26;20456;-47
2024/04/23 08:38:02;;;;;;;4.30;3.40;;;10.70;84.30;;;;;;5491994;25;20461;-47
2024/04/23 08:40:32;;;;;;;3.57;3.07;;;10.60;84.70;;;;;;5490928;26;20518;-47
2024/04/23 08:43:10;;;;;;;3.30;2.97;;;10.60;84.90;;;;;;5488276;26;20463;-47
2024/04/23 08:45:43;;;;;;;2.77;2.57;;;10.60;84.70;;;;;;5476276;26;20462;-47
2024/04/23 08:48:12;;;;;;;3.90;3.43;;;10.60;86.30;;;;;;5510126;26;20562;-47
2024/04/23 08:50:42;;;;;;;2.93;2.63;;;10.60;85.00;;;;;;5470559;26;20469;-47
2024/04/23 08:53:11;;;;;;;3.50;3.07;;;10.60;84.90;;;;;;5468608;26;20513;-47
2024/04/23 08:55:46;;;;;;;4.67;3.93;;;10.60;84.70;;;;;;5478233;26;20462;-47
2024/04/23 08:58:14;;;;;;;3.33;3.03;;;10.60;84.60;;;;;;5493412;26;20515;-47
2024/04/23 09:00:49;;;;;;;3.50;2.90;;;10.60;84.90;;;;;;5463290;26;20473;-47
2024/04/23 09:03:23;;;;;;;3.87;2.73;;;10.70;84.10;;;;;;5489364;26;20472;-47
2024/04/23 09:05:53;;;;;;;3.13;2.83;;;10.70;84.70;;;;;;5476671;26;20505;-47
2024/04/23 09:08:22;;;;;;;3.53;2.60;;;10.70;84.20;;;;;;5482977;26;20450;-47
2024/04/23 09:10:53;;;;;;;3.20;2.90;;;10.70;84.70;;;;;;5461542;26;20518;-47
2024/04/23 09:13:20;;;;;;;3.07;2.33;;;10.70;84.70;;;;;;5475023;26;20574;-47
2024/04/23 09:15:53;;;;;;;2.90;2.60;;;10.70;84.40;;;;;;5466524;26;21094;-47
2024/04/23 09:18:21;;;;;;;3.20;2.90;;;10.70;84.80;;;;;;5472318;26;20430;-47
2024/04/23 09:20:52;;;;;;;4.13;3.37;;;10.70;84.00;;;;;;5475794;26;20861;-47
2024/04/23 09:23:19;;;;;;;3.30;2.90;;;10.70;84.50;;;;;;5475459;26;20511;-47
2024/04/23 09:25:50;;;;;;;2.83;2.63;;;10.70;84.40;;;;;;5474772;26;21162;-47
2024/04/23 09:28:20;;;;;;;3.40;3.10;;;10.70;84.80;;;;;;5473773;26;20580;-47
2024/04/23 09:30:54;;;;;;;3.30;2.40;;;10.70;84.00;;;;;;5470553;26;20470;-47
2024/04/23 09:33:23;;;;;;;2.60;2.40;;;10.70;84.60;;;;;;5473639;26;21006;-47
2024/04/23 09:36:02;;;;;;;3.17;2.80;;;10.70;84.70;;;;;;5475437;26;20498;-47
2024/04/23 09:38:34;;;;;;;2.40;2.20;;;10.70;84.70;;;;;;5473875;26;20454;-47
2024/04/23 09:41:04;;;;;;;2.40;2.20;;;10.60;83.90;;;;;;5453905;26;20474;-47
2024/04/23 09:43:32;;;;;;;4.37;3.10;;;10.70;84.00;;;;;;5473544;26;20457;-46
2024/04/23 09:46:06;;;;;;;3.40;2.60;;;10.70;84.00;;;;;;5466346;26;20470;-47
2024/04/23 09:48:40;;;;;;;2.70;2.27;;;10.70;84.00;;;;;;5472674;26;20467;-47
2024/04/23 09:51:11;;;;;;;2.73;2.27;;;10.70;85.20;;;;;;5476558;26;20576;-47
2024/04/23 09:53:39;;;;;;;2.50;2.30;;;10.70;84.50;;;;;;5474807;26;21007;-47
2024/04/23 09:56:12;;;;;;;2.63;2.43;;;10.60;84.60;;;;;;5471102;26;20464;-47
2024/04/23 09:58:40;;;;;;;2.40;2.20;;;10.60;84.20;;;;;;5472982;26;20462;-47
2024/04/23 10:01:13;;;;;;;3.07;2.77;;;10.60;84.40;;;;;;5466369;26;20476;-47
2024/04/23 10:03:43;;;;;;;2.80;2.43;;;10.60;84.70;;;;;;5474343;26;20457;-47
2024/04/23 10:06:21;;;;;;;2.40;2.17;;;10.60;84.50;;;;;;5474475;26;20510;-48
2024/04/23 10:08:52;;;;;;;2.50;2.20;;;10.60;84.80;;;;;;5471550;26;21075;-47
2024/04/23 10:11:28;;;;;;;2.50;2.30;;;10.60;84.70;;;;;;5467772;26;20462;-47
2024/04/23 10:14:04;;;;;;;3.67;2.37;;;10.60;84.00;;;;;;5468341;26;20453;-47
2024/04/23 10:16:39;;;;;;;3.07;2.43;;;10.60;84.20;;;;;;5473826;26;20471;-47
2024/04/23 10:19:10;;;;;;;2.60;2.30;;;10.60;83.90;;;;;;5476659;26;20453;-47
2024/04/23 10:21:39;;;;;;;2.10;1.90;;;10.60;84.60;;;;;;5464646;26;20478;-47
2024/04/23 10:24:12;;;;;;;2.47;2.27;;;10.60;84.60;;;;;;5476439;26;20573;-47
2024/04/23 10:26:42;;;;;;;2.30;2.10;;;10.60;84.60;;;;;;5475788;26;21081;-48
2024/04/23 10:29:15;;;;;;;1.90;1.70;;;10.60;84.80;;;;;;5472501;26;20519;-47
2024/04/23 10:31:45;;;;;;;2.20;2.00;;;10.60;84.80;;;;;;5461874;26;20469;-48
2024/04/23 10:34:16;;;;;;;1.97;1.77;;;10.60;84.00;;;;;;5473707;26;20517;-48
2024/04/23 10:36:47;;;;;;;2.13;1.93;;;10.60;84.70;;;;;;5474319;26;20854;-48
2024/04/23 10:39:21;;;;;;;2.60;2.13;;;10.60;84.70;;;;;;5472137;26;20515;-47
2024/04/23 10:41:51;;;;;;;2.37;2.17;;;10.60;84.50;;;;;;5474576;26;20466;-48
2024/04/23 10:44:25;;;;;;;2.07;1.80;;;10.60;84.70;;;;;;5468680;25;20448;-48
2024/04/23 10:46:55;;;;;;;2.77;2.23;;;10.60;84.50;;;;;;5474188;26;20522;-47
2024/04/23 10:49:29;;;;;;;1.90;1.80;;;10.60;84.10;;;;;;5472836;26;20463;-48
2024/04/23 10:51:57;;;;;;;2.10;1.90;;;10.70;84.00;;;;;;5471700;26;20578;-47
2024/04/23 10:54:27;;;;;;;2.90;2.10;;;10.70;84.00;;;;;;5471974;26;20896;-47
2024/04/23 10:56:58;;;;;;;2.03;1.77;;;10.70;84.10;;;;;;5472545;26;20469;-48
2024/04/23 10:59:32;;;;;;;2.40;2.17;;;10.70;84.40;;;;;;5448490;26;20524;-49
2024/04/23 11:02:06;;;;;;;2.10;1.90;;;10.60;83.90;;;;;;5471069;26;20519;-48
2024/04/23 11:04:39;;;;;;;4.13;2.10;;;10.60;84.50;;;;;;5471908;26;20511;-52
2024/04/23 11:07:08;;;;;;;2.27;2.07;;;10.60;84.60;;;;;;5473886;26;21115;-47
2024/04/23 11:09:39;;;;;;;2.63;2.43;;;10.60;84.70;;;;;;5470751;26;20458;-48
2024/04/23 11:12:17;;;;;;;2.10;1.50;;;10.60;84.50;;;;;;5469738;26;20511;-47
2024/04/23 11:14:48;;;;;;;2.30;2.10;;;10.60;83.90;;;;;;5461800;26;20521;-47
2024/04/23 11:17:19;;;;;;;2.30;1.83;;;10.70;84.50;;;;;;5471204;26;20582;-49
2024/04/23 11:19:51;;;;;;;2.60;2.10;;;10.70;84.00;;;;;;5442937;26;20453;-47
2024/04/23 11:22:28;;;;;;;2.87;1.50;;;10.70;84.50;;;;;;5471358;26;20833;-49
2024/04/23 11:24:59;;;;;;;1.90;1.50;;;10.70;84.50;;;;;;5441089;26;20457;-49
2024/04/23 11:27:28;;;;;;;2.37;2.00;;;10.70;84.40;;;;;;5474565;26;21008;-47
2024/04/23 11:29:59;;;;;;;1.97;1.77;;;10.70;84.00;;;;;;5475353;26;20520;-48
2024/04/23 11:32:32;;;;;;;1.83;1.70;;;10.70;84.40;;;;;;5473322;26;20792;-51
2024/04/23 11:35:06;;;;;;;1.83;1.73;;;10.70;84.60;;;;;;5489614;26;20821;-48
2024/04/23 11:37:38;;;;;;;2.53;1.90;;;10.70;84.50;;;;;;5470724;26;20465;-48
2024/04/23 11:40:07;;;;;;;2.30;1.77;;;10.70;84.50;;;;;;5477849;26;20876;-48
2024/04/23 11:42:38;;;;;;;1.77;1.60;;;10.70;84.50;;;;;;5471054;26;20461;-47
2024/04/23 11:45:06;;;;;;;2.10;1.70;;;10.70;84.40;;;;;;5464275;26;20468;-48
2024/04/23 11:47:38;;;;;;;4.17;1.80;;;10.70;84.80;;;;;;5473522;26;20452;-49
2024/04/23 11:50:06;;;;;;;2.47;1.70;;;10.70;84.60;;;;;;5474869;26;21014;-48
2024/04/23 11:52:37;;;;;;;2.13;1.93;;;10.70;84.80;;;;;;5481796;26;20533;-48
2024/04/23 11:55:08;;;;;;;2.37;2.00;;;10.70;84.70;;;;;;5476493;26;21080;-47
2024/04/23 11:57:39;;;;;;;2.27;1.60;;;10.70;84.70;;;;;;5477832;26;20461;-47
2024/04/23 12:00:07;;;;;;;2.17;1.97;;;10.70;84.80;;;;;;5471133;26;20510;-49
2024/04/23 12:02:40;;;;;;;2.00;1.80;;;10.70;84.40;;;;;;5492300;26;20456;-47
2024/04/23 12:05:07;;;;;;;3.03;2.10;;;10.70;84.60;;;;;;5470430;26;20469;-47
2024/04/23 12:07:38;;;;;;;2.30;1.50;;;10.70;85.00;;;;;;5495954;26;21182;-47
2024/04/23 12:10:06;;;;;;;2.20;1.90;;;10.70;84.90;;;;;;5470219;26;20538;-48
2024/04/23 12:12:36;;;;;;;1.90;1.70;;;10.70;84.90;;;;;;5472935;26;21011;-47
2024/04/23 12:15:05;;;;;;;2.27;1.80;;;10.70;84.70;;;;;;5474249;26;20546;-47
2024/04/23 12:17:42;;;;;;;3.10;2.00;;;10.70;84.00;;;;;;5476778;26;20446;-49
2024/04/23 12:20:12;;;;;;;1.90;1.50;;;10.70;84.80;;;;;;5475172;26;20514;-47
2024/04/23 12:22:44;;;;;;;1.70;1.50;;;10.70;84.00;;;;;;5473132;26;21654;-47
2024/04/23 12:25:16;;;;;;;2.43;1.73;;;10.80;84.60;;;;;;5464855;26;21043;-49
2024/04/23 12:27:46;;;;;;;1.83;1.73;;;10.80;84.60;;;;;;5477753;26;20510;-47
2024/04/23 12:30:17;;;;;;;2.27;2.07;;;10.80;84.50;;;;;;5471598;26;20485;-48
2024/04/23 12:32:51;;;;;;;2.30;1.83;;;10.80;84.20;;;;;;5479718;26;20462;-48
2024/04/23 12:35:22;;;;;;;2.27;1.70;;;10.80;84.40;;;;;;5477496;26;20464;-48
2024/04/23 12:37:57;;;;;;;2.20;2.00;;;10.80;84.30;;;;;;5480377;26;20516;-48
2024/04/23 12:40:28;;;;;;;2.40;2.13;;;10.80;84.20;;;;;;5478037;26;20514;-48
2024/04/23 12:42:56;;;;;;;1.80;1.70;;;10.80;84.40;;;;;;5438678;26;20523;-49
2024/04/23 12:45:26;;;;;;;2.50;1.57;;;10.80;84.70;;;;;;5479870;26;20459;-48
2024/04/23 12:47:58;;;;;;;2.00;1.67;;;10.80;84.50;;;;;;5483560;26;20534;-47
2024/04/23 12:50:29;;;;;;;1.97;1.60;;;10.80;84.50;;;;;;5486186;26;20439;-47
2024/04/23 12:52:57;;;;;;;2.60;1.70;;;10.80;84.20;;;;;;5481602;26;20466;-47
2024/04/23 12:55:27;;;;;;;2.67;2.00;;;10.80;84.10;;;;;;5469291;25;20473;-48
2024/04/23 12:57:55;;;;;;;2.00;1.80;;;10.80;84.10;;;;;;5473176;25;20807;-47
2024/04/23 13:00:25;;;;;;;1.90;1.70;;;10.80;84.10;;;;;;5464768;25;20566;-47
2024/04/23 13:02:52;;;;;;;2.23;2.07;;;10.80;84.10;;;;;;5454579;26;20459;-48
2024/04/23 13:05:24;;;;;;;2.40;2.20;;;10.90;84.20;;;;;;5462195;25;20535;-48
2024/04/23 13:07:52;;;;;;;2.13;1.93;;;10.90;84.20;;;;;;5451272;25;20993;-51
2024/04/23 13:10:22;;;;;;;1.70;1.60;;;10.80;84.10;;;;;;5450967;25;20529;-49
2024/04/23 13:12:49;;;;;;;2.50;2.30;;;10.90;84.20;;;;;;5476354;26;21004;-47